Flag for Romania

Past Weather in 47°09'57.9"N, 27°34'50.4"E, Romania — Yesterday and Last 2 Weeks

Currently: 48 °F. Clear. (Weather station: Iasi Airport, Romania). See more current weather

Past Weather in 47°09'57.9"N, 27°34'50.4"E — Graph

°F

47°09'57.9"N, 27°34'50.4"E Temperature Yesterday

Maximum temperature yesterday: 54 °F (at 2:30 pm)
Minimum temperature yesterday: 36 °F (at 6:30 am)
Average temperature yesterday: 44 °F

High & Low Weather Summary for the Past Weeks

 TemperatureHumidityPressure
High63 °F (Feb 24, 2:00 pm)100% (Feb 13, 7:00 pm)30.45 "Hg (Feb 13, 7:00 pm)
Low30 °F (Feb 20, 3:00 am)41% (Feb 23, 1:00 pm)29.77 "Hg (Feb 13, 7:00 pm)
Average42 °F79%30.14 "Hg
* Reported Feb 13 7:00 pm — Feb 28 7:00 pm, 47°09'57.9"N, 27°34'50.4"E. Weather by CustomWeather, © 2024

Note: Actual official high and low records may vary slightly from our data, if they occured in-between our weather recording intervals... More about our weather records

47°09'57.9"N, 27°34'50.4"E Weather History for the Previous 24 Hours

Scroll right to see more
 ConditionsComfort  
Time TempWeatherWind HumidityBarometerVisibility
7:00 pm
Wed, Feb 28
48 °FClear.5 mph71%30.21 "Hg10 mi
6:30 pm50 °FClear.3 mph67%30.21 "Hg10 mi
6:00 pm50 °FPassing clouds.5 mph67%30.21 "HgN/A
5:30 pm52 °FSunny.10 mph62%30.18 "Hg10 mi
5:00 pm52 °FSunny.8 mph62%30.18 "Hg10 mi
4:30 pm52 °FSunny.10 mph62%30.18 "Hg10 mi
4:00 pm52 °FSunny.15 mph62%30.18 "Hg10 mi
3:30 pm54 °FSunny.13 mph54%30.18 "Hg10 mi
3:00 pm54 °FSunny.12 mph54%30.18 "Hg10 mi
2:30 pm54 °FPassing clouds.9 mph54%30.21 "HgN/A
2:00 pm50 °FSunny.18 mph62%30.21 "Hg10 mi
1:30 pm48 °FSunny.21 mph66%30.18 "Hg10 mi
1:00 pm46 °FSunny.21 mph71%30.21 "Hg10 mi
12:30 pm46 °FSunny.20 mph71%30.21 "Hg10 mi
12:00 pm45 °FSunny.21 mph71%30.21 "Hg10 mi
11:30 am43 °FSunny.21 mph76%30.21 "Hg10 mi
11:00 am41 °FSunny.21 mph76%30.21 "Hg10 mi
10:30 am39 °FSunny.18 mph87%30.21 "Hg10 mi
10:00 am37 °FSunny.17 mph87%30.21 "Hg10 mi
9:30 am37 °FSunny.17 mph87%30.21 "Hg10 mi
9:00 am37 °FSunny.16 mph87%30.21 "Hg10 mi
8:30 am37 °FSunny.16 mph87%30.21 "Hg10 mi
8:00 am36 °FSunny.15 mph93%30.21 "Hg10 mi
7:30 am36 °FSunny.14 mph87%30.21 "Hg10 mi
7:00 am36 °FSunny.13 mph87%30.18 "Hg10 mi
6:30 am36 °FClear.13 mph87%30.18 "Hg10 mi
6:00 am37 °FClear.14 mph81%30.18 "Hg10 mi
5:30 am37 °FClear.14 mph81%30.18 "Hg10 mi
5:00 am37 °FPassing clouds.14 mph81%30.18 "HgN/A
4:30 am37 °FPassing clouds.14 mph81%30.18 "HgN/A
4:00 am37 °FPassing clouds.14 mph81%30.18 "HgN/A
3:30 am37 °FPassing clouds.14 mph87%30.18 "HgN/A
3:00 am39 °FClear.15 mph81%30.18 "Hg10 mi
2:30 am39 °FPassing clouds.15 mph81%30.18 "HgN/A
2:00 am39 °FPassing clouds.12 mph81%30.18 "HgN/A
1:30 am39 °FOvercast.13 mph81%30.18 "HgN/A
1:00 am39 °FPassing clouds.9 mph81%30.18 "HgN/A
12:00 am41 °FClear.13 mph76%30.18 "Hg10 mi
11:00 pm
Tue, Feb 27
41 °FClear.14 mph70%30.18 "Hg10 mi
10:30 pm41 °FClear.10 mph70%30.18 "Hg10 mi
10:00 pm43 °FClear.12 mph66%30.18 "Hg10 mi
9:30 pm43 °FClear.10 mph66%30.18 "Hg10 mi
8:30 pm45 °FClear.13 mph61%30.15 "Hg10 mi
8:00 pm46 °FClear.14 mph53%30.15 "Hg10 mi
Weather by CustomWeather, © 2024

See weather overview